sensor_id;sensor_type;location;lat;lon;timestamp;P1;durP1;ratioP1;P2;durP2;ratioP2
18726;SDS011;9492;51.888;5.186;2023-07-29T00:02:08;3.10;;;2.80;;
18726;SDS011;9492;51.888;5.186;2023-07-29T00:04:34;7.73;;;3.70;;
18726;SDS011;9492;51.888;5.186;2023-07-29T00:07:00;5.07;;;3.07;;
18726;SDS011;9492;51.888;5.186;2023-07-29T00:09:26;3.27;;;2.97;;
18726;SDS011;9492;51.888;5.186;2023-07-29T00:11:52;3.83;;;2.93;;
18726;SDS011;9492;51.888;5.186;2023-07-29T00:14:18;3.03;;;2.57;;
18726;SDS011;9492;51.888;5.186;2023-07-29T00:16:44;4.23;;;3.00;;
18726;SDS011;9492;51.888;5.186;2023-07-29T00:19:10;3.00;;;2.60;;
18726;SDS011;9492;51.888;5.186;2023-07-29T00:21:36;3.83;;;3.00;;
18726;SDS011;9492;51.888;5.186;2023-07-29T00:24:06;3.90;;;3.03;;
18726;SDS011;9492;51.888;5.186;2023-07-29T00:26:35;3.63;;;3.33;;
18726;SDS011;9492;51.888;5.186;2023-07-29T00:29:01;4.33;;;3.50;;
18726;SDS011;9492;51.888;5.186;2023-07-29T00:31:27;4.00;;;3.60;;
18726;SDS011;9492;51.888;5.186;2023-07-29T00:33:53;4.67;;;3.80;;
18726;SDS011;9492;51.888;5.186;2023-07-29T00:36:19;3.73;;;3.43;;
18726;SDS011;9492;51.888;5.186;2023-07-29T00:38:45;4.87;;;4.37;;
18726;SDS011;9492;51.888;5.186;2023-07-29T00:41:11;5.60;;;4.90;;
18726;SDS011;9492;51.888;5.186;2023-07-29T00:43:38;5.60;;;3.90;;
18726;SDS011;9492;51.888;5.186;2023-07-29T00:46:04;5.67;;;4.30;;
18726;SDS011;9492;51.888;5.186;2023-07-29T00:48:30;3.80;;;3.50;;
18726;SDS011;9492;51.888;5.186;2023-07-29T00:50:56;7.73;;;3.77;;
18726;SDS011;9492;51.888;5.186;2023-07-29T00:53:22;4.83;;;4.30;;
18726;SDS011;9492;51.888;5.186;2023-07-29T00:55:48;7.37;;;4.50;;
18726;SDS011;9492;51.888;5.186;2023-07-29T00:58:14;5.17;;;4.40;;
18726;SDS011;9492;51.888;5.186;2023-07-29T01:00:41;7.73;;;5.53;;
18726;SDS011;9492;51.888;5.186;2023-07-29T01:03:10;5.67;;;4.63;;
18726;SDS011;9492;51.888;5.186;2023-07-29T01:06:23;6.23;;;4.40;;
18726;SDS011;9492;51.888;5.186;2023-07-29T01:08:31;4.87;;;4.10;;
18726;SDS011;9492;51.888;5.186;2023-07-29T01:10:58;5.77;;;3.80;;
18726;SDS011;9492;51.888;5.186;2023-07-29T01:13:50;5.30;;;3.43;;
18726;SDS011;9492;51.888;5.186;2023-07-29T01:16:24;7.03;;;3.90;;
18726;SDS011;9492;51.888;5.186;2023-07-29T01:18:51;5.80;;;3.83;;
18726;SDS011;9492;51.888;5.186;2023-07-29T01:21:18;4.00;;;3.50;;
18726;SDS011;9492;51.888;5.186;2023-07-29T01:23:45;4.97;;;3.87;;
18726;SDS011;9492;51.888;5.186;2023-07-29T01:26:11;6.00;;;3.87;;
18726;SDS011;9492;51.888;5.186;2023-07-29T01:28:37;5.93;;;3.93;;
18726;SDS011;9492;51.888;5.186;2023-07-29T01:31:13;8.60;;;4.47;;
18726;SDS011;9492;51.888;5.186;2023-07-29T01:33:42;6.93;;;4.20;;
18726;SDS011;9492;51.888;5.186;2023-07-29T01:36:14;4.40;;;3.83;;
18726;SDS011;9492;51.888;5.186;2023-07-29T01:38:41;5.03;;;3.50;;
18726;SDS011;9492;51.888;5.186;2023-07-29T01:41:08;4.93;;;3.43;;
18726;SDS011;9492;51.888;5.186;2023-07-29T01:43:34;4.63;;;3.50;;
18726;SDS011;9492;51.888;5.186;2023-07-29T01:46:06;3.83;;;3.10;;
18726;SDS011;9492;51.888;5.186;2023-07-29T01:48:32;5.80;;;3.07;;
18726;SDS011;9492;51.888;5.186;2023-07-29T01:50:58;5.30;;;3.23;;
18726;SDS011;9492;51.888;5.186;2023-07-29T01:53:24;6.50;;;3.17;;
18726;SDS011;9492;51.888;5.186;2023-07-29T01:55:50;3.93;;;2.67;;
18726;SDS011;9492;51.888;5.186;2023-07-29T01:58:16;5.33;;;3.40;;
18726;SDS011;9492;51.888;5.186;2023-07-29T02:00:42;3.70;;;2.90;;
18726;SDS011;9492;51.888;5.186;2023-07-29T02:03:08;3.77;;;2.67;;
18726;SDS011;9492;51.888;5.186;2023-07-29T02:05:34;4.60;;;2.80;;
18726;SDS011;9492;51.888;5.186;2023-07-29T02:08:00;2.47;;;2.27;;
18726;SDS011;9492;51.888;5.186;2023-07-29T02:10:27;4.33;;;2.30;;
18726;SDS011;9492;51.888;5.186;2023-07-29T02:12:53;3.23;;;2.70;;
18726;SDS011;9492;51.888;5.186;2023-07-29T02:15:18;2.90;;;2.67;;
18726;SDS011;9492;51.888;5.186;2023-07-29T02:17:44;3.57;;;2.37;;
18726;SDS011;9492;51.888;5.186;2023-07-29T02:20:10;3.20;;;2.23;;
18726;SDS011;9492;51.888;5.186;2023-07-29T02:22:37;3.10;;;2.80;;
18726;SDS011;9492;51.888;5.186;2023-07-29T02:25:03;3.13;;;2.60;;
18726;SDS011;9492;51.888;5.186;2023-07-29T02:27:29;4.00;;;2.53;;
18726;SDS011;9492;51.888;5.186;2023-07-29T02:29:55;4.27;;;2.77;;
18726;SDS011;9492;51.888;5.186;2023-07-29T02:32:21;3.80;;;2.70;;
18726;SDS011;9492;51.888;5.186;2023-07-29T02:34:48;3.90;;;2.70;;
18726;SDS011;9492;51.888;5.186;2023-07-29T02:37:14;3.57;;;2.23;;
18726;SDS011;9492;51.888;5.186;2023-07-29T02:39:40;3.50;;;2.67;;
18726;SDS011;9492;51.888;5.186;2023-07-29T02:42:06;4.90;;;2.77;;
18726;SDS011;9492;51.888;5.186;2023-07-29T02:44:32;4.20;;;2.13;;
18726;SDS011;9492;51.888;5.186;2023-07-29T02:46:58;4.70;;;2.60;;
18726;SDS011;9492;51.888;5.186;2023-07-29T02:49:24;4.10;;;2.30;;
18726;SDS011;9492;51.888;5.186;2023-07-29T02:51:50;4.10;;;2.10;;
18726;SDS011;9492;51.888;5.186;2023-07-29T02:54:16;2.93;;;2.47;;
18726;SDS011;9492;51.888;5.186;2023-07-29T02:56:42;2.87;;;2.30;;
18726;SDS011;9492;51.888;5.186;2023-07-29T02:59:08;2.80;;;2.23;;
18726;SDS011;9492;51.888;5.186;2023-07-29T03:01:34;2.93;;;2.03;;
18726;SDS011;9492;51.888;5.186;2023-07-29T03:04:00;2.73;;;2.40;;
18726;SDS011;9492;51.888;5.186;2023-07-29T03:06:26;2.37;;;2.17;;
18726;SDS011;9492;51.888;5.186;2023-07-29T03:08:53;5.40;;;2.67;;
18726;SDS011;9492;51.888;5.186;2023-07-29T03:11:19;2.60;;;2.33;;
18726;SDS011;9492;51.888;5.186;2023-07-29T03:13:45;2.40;;;1.97;;
18726;SDS011;9492;51.888;5.186;2023-07-29T03:16:14;2.37;;;2.17;;
18726;SDS011;9492;51.888;5.186;2023-07-29T03:18:41;3.70;;;2.70;;
18726;SDS011;9492;51.888;5.186;2023-07-29T03:21:07;3.10;;;2.20;;
18726;SDS011;9492;51.888;5.186;2023-07-29T03:23:34;3.13;;;2.53;;
18726;SDS011;9492;51.888;5.186;2023-07-29T03:26:00;3.93;;;2.43;;
18726;SDS011;9492;51.888;5.186;2023-07-29T03:28:29;2.50;;;2.13;;
18726;SDS011;9492;51.888;5.186;2023-07-29T03:30:56;2.50;;;2.07;;
18726;SDS011;9492;51.888;5.186;2023-07-29T03:33:22;2.23;;;1.90;;
18726;SDS011;9492;51.888;5.186;2023-07-29T03:35:48;2.10;;;1.90;;
18726;SDS011;9492;51.888;5.186;2023-07-29T03:38:15;4.30;;;2.13;;
18726;SDS011;9492;51.888;5.186;2023-07-29T03:40:41;2.43;;;1.87;;
18726;SDS011;9492;51.888;5.186;2023-07-29T03:43:07;2.47;;;1.70;;
18726;SDS011;9492;51.888;5.186;2023-07-29T03:45:34;1.80;;;1.63;;
18726;SDS011;9492;51.888;5.186;2023-07-29T03:48:00;2.97;;;1.80;;
18726;SDS011;9492;51.888;5.186;2023-07-29T03:50:26;2.67;;;2.03;;
18726;SDS011;9492;51.888;5.186;2023-07-29T03:52:52;2.27;;;2.07;;
18726;SDS011;9492;51.888;5.186;2023-07-29T03:55:18;2.17;;;1.77;;
18726;SDS011;9492;51.888;5.186;2023-07-29T03:57:45;2.50;;;1.87;;
18726;SDS011;9492;51.888;5.186;2023-07-29T04:00:11;2.43;;;1.93;;
18726;SDS011;9492;51.888;5.186;2023-07-29T04:02:37;1.70;;;1.60;;
18726;SDS011;9492;51.888;5.186;2023-07-29T04:05:04;2.17;;;1.93;;
18726;SDS011;9492;51.888;5.186;2023-07-29T04:07:30;2.63;;;2.00;;
18726;SDS011;9492;51.888;5.186;2023-07-29T04:09:56;2.57;;;1.77;;
18726;SDS011;9492;51.888;5.186;2023-07-29T04:12:22;2.57;;;2.10;;
18726;SDS011;9492;51.888;5.186;2023-07-29T04:14:49;2.70;;;1.67;;
18726;SDS011;9492;51.888;5.186;2023-07-29T04:17:15;2.83;;;1.90;;
18726;SDS011;9492;51.888;5.186;2023-07-29T04:19:41;3.00;;;2.03;;
18726;SDS011;9492;51.888;5.186;2023-07-29T04:22:07;3.03;;;1.90;;
18726;SDS011;9492;51.888;5.186;2023-07-29T04:24:33;2.40;;;2.20;;
18726;SDS011;9492;51.888;5.186;2023-07-29T04:26:59;3.53;;;2.10;;
18726;SDS011;9492;51.888;5.186;2023-07-29T04:29:25;3.30;;;2.53;;
18726;SDS011;9492;51.888;5.186;2023-07-29T04:31:51;2.47;;;1.90;;
18726;SDS011;9492;51.888;5.186;2023-07-29T04:34:17;3.10;;;2.07;;
18726;SDS011;9492;51.888;5.186;2023-07-29T04:36:44;3.67;;;2.27;;
18726;SDS011;9492;51.888;5.186;2023-07-29T04:39:10;3.33;;;2.37;;
18726;SDS011;9492;51.888;5.186;2023-07-29T04:41:36;2.70;;;2.03;;
18726;SDS011;9492;51.888;5.186;2023-07-29T04:44:02;2.60;;;2.20;;
18726;SDS011;9492;51.888;5.186;2023-07-29T04:46:28;2.83;;;2.27;;
18726;SDS011;9492;51.888;5.186;2023-07-29T04:48:55;3.20;;;2.40;;
18726;SDS011;9492;51.888;5.186;2023-07-29T04:51:21;5.07;;;2.73;;
18726;SDS011;9492;51.888;5.186;2023-07-29T04:53:47;2.97;;;2.67;;
18726;SDS011;9492;51.888;5.186;2023-07-29T04:56:13;3.80;;;2.57;;
18726;SDS011;9492;51.888;5.186;2023-07-29T04:58:39;4.03;;;2.73;;
18726;SDS011;9492;51.888;5.186;2023-07-29T05:01:05;5.40;;;3.13;;
18726;SDS011;9492;51.888;5.186;2023-07-29T05:03:31;2.60;;;2.40;;
18726;SDS011;9492;51.888;5.186;2023-07-29T05:05:58;5.83;;;2.90;;
18726;SDS011;9492;51.888;5.186;2023-07-29T05:08:25;3.23;;;2.80;;
18726;SDS011;9492;51.888;5.186;2023-07-29T05:10:51;3.93;;;2.83;;
18726;SDS011;9492;51.888;5.186;2023-07-29T05:13:18;3.43;;;2.70;;
18726;SDS011;9492;51.888;5.186;2023-07-29T05:15:44;3.50;;;2.83;;
18726;SDS011;9492;51.888;5.186;2023-07-29T05:18:10;5.73;;;3.57;;
18726;SDS011;9492;51.888;5.186;2023-07-29T05:20:36;3.27;;;2.70;;
18726;SDS011;9492;51.888;5.186;2023-07-29T05:23:02;5.23;;;2.93;;
18726;SDS011;9492;51.888;5.186;2023-07-29T05:25:28;5.40;;;3.27;;
18726;SDS011;9492;51.888;5.186;2023-07-29T05:27:54;5.80;;;3.37;;
18726;SDS011;9492;51.888;5.186;2023-07-29T05:30:22;4.40;;;3.40;;
18726;SDS011;9492;51.888;5.186;2023-07-29T05:32:48;4.73;;;3.10;;
18726;SDS011;9492;51.888;5.186;2023-07-29T05:35:14;4.47;;;3.10;;
18726;SDS011;9492;51.888;5.186;2023-07-29T05:37:40;3.97;;;3.20;;
18726;SDS011;9492;51.888;5.186;2023-07-29T05:40:06;4.93;;;3.20;;
18726;SDS011;9492;51.888;5.186;2023-07-29T05:42:33;6.13;;;3.57;;
18726;SDS011;9492;51.888;5.186;2023-07-29T05:44:59;5.10;;;3.13;;
18726;SDS011;9492;51.888;5.186;2023-07-29T05:47:25;5.10;;;2.97;;
18726;SDS011;9492;51.888;5.186;2023-07-29T05:49:52;5.90;;;3.27;;
18726;SDS011;9492;51.888;5.186;2023-07-29T05:52:18;4.03;;;3.20;;
18726;SDS011;9492;51.888;5.186;2023-07-29T05:54:44;5.37;;;3.30;;
18726;SDS011;9492;51.888;5.186;2023-07-29T05:57:11;7.67;;;3.70;;
18726;SDS011;9492;51.888;5.186;2023-07-29T05:59:37;7.67;;;4.00;;
18726;SDS011;9492;51.888;5.186;2023-07-29T06:02:03;5.10;;;3.57;;
18726;SDS011;9492;51.888;5.186;2023-07-29T06:04:30;3.83;;;3.17;;
18726;SDS011;9492;51.888;5.186;2023-07-29T06:06:56;6.37;;;3.17;;
18726;SDS011;9492;51.888;5.186;2023-07-29T06:09:22;5.23;;;3.50;;
18726;SDS011;9492;51.888;5.186;2023-07-29T06:11:48;4.23;;;3.30;;
18726;SDS011;9492;51.888;5.186;2023-07-29T06:14:14;4.30;;;3.43;;
18726;SDS011;9492;51.888;5.186;2023-07-29T06:16:40;6.50;;;3.63;;
18726;SDS011;9492;51.888;5.186;2023-07-29T06:19:06;5.47;;;3.20;;
18726;SDS011;9492;51.888;5.186;2023-07-29T06:21:33;4.53;;;3.57;;
18726;SDS011;9492;51.888;5.186;2023-07-29T06:24:00;6.10;;;3.47;;
18726;SDS011;9492;51.888;5.186;2023-07-29T06:26:26;4.00;;;3.37;;
18726;SDS011;9492;51.888;5.186;2023-07-29T06:28:52;4.43;;;3.17;;
18726;SDS011;9492;51.888;5.186;2023-07-29T06:31:18;3.57;;;3.27;;
18726;SDS011;9492;51.888;5.186;2023-07-29T06:33:44;4.13;;;3.10;;
18726;SDS011;9492;51.888;5.186;2023-07-29T06:36:10;4.17;;;3.53;;
18726;SDS011;9492;51.888;5.186;2023-07-29T06:38:36;5.50;;;3.40;;
18726;SDS011;9492;51.888;5.186;2023-07-29T06:41:03;3.90;;;3.10;;
18726;SDS011;9492;51.888;5.186;2023-07-29T06:43:29;4.63;;;3.43;;
18726;SDS011;9492;51.888;5.186;2023-07-29T06:45:55;3.27;;;2.97;;
18726;SDS011;9492;51.888;5.186;2023-07-29T06:48:21;4.73;;;3.23;;
18726;SDS011;9492;51.888;5.186;2023-07-29T06:50:48;3.50;;;3.20;;
18726;SDS011;9492;51.888;5.186;2023-07-29T06:53:15;6.00;;;3.80;;
18726;SDS011;9492;51.888;5.186;2023-07-29T06:55:42;4.30;;;3.60;;
18726;SDS011;9492;51.888;5.186;2023-07-29T06:58:08;6.87;;;3.53;;
18726;SDS011;9492;51.888;5.186;2023-07-29T07:00:34;4.27;;;3.00;;
18726;SDS011;9492;51.888;5.186;2023-07-29T07:03:00;4.70;;;3.40;;
18726;SDS011;9492;51.888;5.186;2023-07-29T07:05:26;3.30;;;2.93;;
18726;SDS011;9492;51.888;5.186;2023-07-29T07:07:52;5.30;;;3.17;;
18726;SDS011;9492;51.888;5.186;2023-07-29T07:10:19;3.90;;;3.07;;
18726;SDS011;9492;51.888;5.186;2023-07-29T07:12:44;4.63;;;2.60;;
18726;SDS011;9492;51.888;5.186;2023-07-29T07:15:11;4.67;;;2.83;;
18726;SDS011;9492;51.888;5.186;2023-07-29T07:17:40;3.63;;;2.60;;
18726;SDS011;9492;51.888;5.186;2023-07-29T07:20:06;2.70;;;2.47;;
18726;SDS011;9492;51.888;5.186;2023-07-29T07:22:32;4.70;;;2.70;;
18726;SDS011;9492;51.888;5.186;2023-07-29T07:24:58;2.50;;;2.30;;
18726;SDS011;9492;51.888;5.186;2023-07-29T07:27:24;4.37;;;2.57;;
18726;SDS011;9492;51.888;5.186;2023-07-29T07:29:50;2.93;;;2.43;;
18726;SDS011;9492;51.888;5.186;2023-07-29T07:32:16;4.40;;;2.87;;
18726;SDS011;9492;51.888;5.186;2023-07-29T07:34:42;3.67;;;2.37;;
18726;SDS011;9492;51.888;5.186;2023-07-29T07:37:08;3.27;;;2.50;;
18726;SDS011;9492;51.888;5.186;2023-07-29T07:39:34;2.50;;;2.00;;
18726;SDS011;9492;51.888;5.186;2023-07-29T07:42:00;3.40;;;2.60;;
18726;SDS011;9492;51.888;5.186;2023-07-29T07:44:26;4.03;;;2.60;;
18726;SDS011;9492;51.888;5.186;2023-07-29T07:46:52;2.67;;;2.30;;
18726;SDS011;9492;51.888;5.186;2023-07-29T07:49:18;2.63;;;2.43;;
18726;SDS011;9492;51.888;5.186;2023-07-29T07:51:44;2.63;;;2.20;;
18726;SDS011;9492;51.888;5.186;2023-07-29T07:54:11;3.03;;;2.47;;
18726;SDS011;9492;51.888;5.186;2023-07-29T07:56:40;5.03;;;2.77;;
18726;SDS011;9492;51.888;5.186;2023-07-29T07:59:06;3.27;;;2.70;;
18726;SDS011;9492;51.888;5.186;2023-07-29T08:01:35;3.10;;;2.20;;
18726;SDS011;9492;51.888;5.186;2023-07-29T08:04:02;3.63;;;2.90;;
18726;SDS011;9492;51.888;5.186;2023-07-29T08:06:28;3.73;;;2.27;;
18726;SDS011;9492;51.888;5.186;2023-07-29T08:08:54;2.30;;;2.10;;
18726;SDS011;9492;51.888;5.186;2023-07-29T08:11:20;3.83;;;2.57;;
18726;SDS011;9492;51.888;5.186;2023-07-29T08:13:46;4.80;;;2.50;;
18726;SDS011;9492;51.888;5.186;2023-07-29T08:16:12;5.60;;;2.83;;
18726;SDS011;9492;51.888;5.186;2023-07-29T08:18:38;3.67;;;3.30;;
18726;SDS011;9492;51.888;5.186;2023-07-29T08:21:04;5.17;;;3.10;;
18726;SDS011;9492;51.888;5.186;2023-07-29T08:23:31;3.90;;;2.90;;
18726;SDS011;9492;51.888;5.186;2023-07-29T08:25:58;4.43;;;2.53;;
18726;SDS011;9492;51.888;5.186;2023-07-29T08:28:28;3.10;;;2.47;;
18726;SDS011;9492;51.888;5.186;2023-07-29T08:30:54;2.73;;;2.20;;
18726;SDS011;9492;51.888;5.186;2023-07-29T08:33:20;2.93;;;2.33;;
18726;SDS011;9492;51.888;5.186;2023-07-29T08:35:46;2.80;;;2.03;;
18726;SDS011;9492;51.888;5.186;2023-07-29T08:38:14;2.70;;;2.10;;
18726;SDS011;9492;51.888;5.186;2023-07-29T08:40:52;2.67;;;1.83;;
18726;SDS011;9492;51.888;5.186;2023-07-29T08:43:19;2.67;;;2.00;;
18726;SDS011;9492;51.888;5.186;2023-07-29T08:45:46;3.27;;;2.37;;
18726;SDS011;9492;51.888;5.186;2023-07-29T08:48:12;3.53;;;2.33;;
18726;SDS011;9492;51.888;5.186;2023-07-29T08:50:38;2.43;;;2.00;;
18726;SDS011;9492;51.888;5.186;2023-07-29T08:53:05;4.27;;;2.10;;
18726;SDS011;9492;51.888;5.186;2023-07-29T08:55:31;2.33;;;2.07;;
18726;SDS011;9492;51.888;5.186;2023-07-29T08:57:58;6.20;;;2.50;;
18726;SDS011;9492;51.888;5.186;2023-07-29T09:00:28;2.67;;;2.10;;
18726;SDS011;9492;51.888;5.186;2023-07-29T09:02:54;4.53;;;2.23;;
18726;SDS011;9492;51.888;5.186;2023-07-29T09:05:22;2.00;;;1.80;;
18726;SDS011;9492;51.888;5.186;2023-07-29T09:07:49;2.43;;;2.23;;
18726;SDS011;9492;51.888;5.186;2023-07-29T09:10:18;4.43;;;1.97;;
18726;SDS011;9492;51.888;5.186;2023-07-29T09:12:47;2.60;;;2.20;;
18726;SDS011;9492;51.888;5.186;2023-07-29T09:15:13;4.17;;;2.33;;
18726;SDS011;9492;51.888;5.186;2023-07-29T09:17:40;4.60;;;2.40;;
18726;SDS011;9492;51.888;5.186;2023-07-29T09:20:06;3.40;;;2.30;;
18726;SDS011;9492;51.888;5.186;2023-07-29T09:22:35;3.60;;;2.33;;
18726;SDS011;9492;51.888;5.186;2023-07-29T09:25:01;3.30;;;2.20;;
18726;SDS011;9492;51.888;5.186;2023-07-29T09:27:27;3.40;;;2.20;;
18726;SDS011;9492;51.888;5.186;2023-07-29T09:29:55;3.40;;;2.43;;
18726;SDS011;9492;51.888;5.186;2023-07-29T09:32:21;3.60;;;2.40;;
18726;SDS011;9492;51.888;5.186;2023-07-29T09:34:48;3.73;;;2.33;;
18726;SDS011;9492;51.888;5.186;2023-07-29T09:37:17;4.50;;;2.37;;
18726;SDS011;9492;51.888;5.186;2023-07-29T09:39:44;2.80;;;2.20;;
18726;SDS011;9492;51.888;5.186;2023-07-29T09:42:19;2.57;;;2.20;;
18726;SDS011;9492;51.888;5.186;2023-07-29T09:44:45;3.03;;;2.20;;
18726;SDS011;9492;51.888;5.186;2023-07-29T09:47:22;2.23;;;2.03;;
18726;SDS011;9492;51.888;5.186;2023-07-29T09:49:48;3.10;;;2.20;;
18726;SDS011;9492;51.888;5.186;2023-07-29T09:52:15;4.17;;;2.07;;
18726;SDS011;9492;51.888;5.186;2023-07-29T09:54:42;2.00;;;1.80;;
18726;SDS011;9492;51.888;5.186;2023-07-29T09:57:09;2.60;;;2.03;;
18726;SDS011;9492;51.888;5.186;2023-07-29T09:59:35;3.33;;;2.40;;
18726;SDS011;9492;51.888;5.186;2023-07-29T10:02:01;2.97;;;2.00;;
18726;SDS011;9492;51.888;5.186;2023-07-29T10:04:28;3.20;;;2.03;;
18726;SDS011;9492;51.888;5.186;2023-07-29T10:06:54;3.33;;;2.20;;
18726;SDS011;9492;51.888;5.186;2023-07-29T10:09:21;4.13;;;2.40;;
18726;SDS011;9492;51.888;5.186;2023-07-29T10:11:48;1.97;;;1.77;;
18726;SDS011;9492;51.888;5.186;2023-07-29T10:14:15;2.53;;;2.10;;
18726;SDS011;9492;51.888;5.186;2023-07-29T10:16:42;8.90;;;2.50;;
18726;SDS011;9492;51.888;5.186;2023-07-29T10:19:10;2.50;;;2.20;;
18726;SDS011;9492;51.888;5.186;2023-07-29T10:21:38;3.07;;;2.10;;
18726;SDS011;9492;51.888;5.186;2023-07-29T10:24:06;2.00;;;1.80;;
18726;SDS011;9492;51.888;5.186;2023-07-29T10:26:35;2.30;;;2.10;;
18726;SDS011;9492;51.888;5.186;2023-07-29T10:29:04;2.40;;;1.77;;
18726;SDS011;9492;51.888;5.186;2023-07-29T10:31:31;2.77;;;1.77;;
18726;SDS011;9492;51.888;5.186;2023-07-29T10:33:57;2.23;;;1.87;;
18726;SDS011;9492;51.888;5.186;2023-07-29T10:36:24;2.23;;;1.90;;
18726;SDS011;9492;51.888;5.186;2023-07-29T10:38:50;2.37;;;1.80;;
18726;SDS011;9492;51.888;5.186;2023-07-29T10:41:18;1.87;;;1.73;;
18726;SDS011;9492;51.888;5.186;2023-07-29T10:43:44;3.57;;;1.93;;
18726;SDS011;9492;51.888;5.186;2023-07-29T10:46:16;1.77;;;1.67;;
18726;SDS011;9492;51.888;5.186;2023-07-29T10:48:43;3.53;;;2.00;;
18726;SDS011;9492;51.888;5.186;2023-07-29T10:53:51;1.97;;;1.53;;
18726;SDS011;9492;51.888;5.186;2023-07-29T11:01:50;1.80;;;1.70;;
18726;SDS011;9492;51.888;5.186;2023-07-29T11:14:53;3.20;;;1.80;;
18726;SDS011;9492;51.888;5.186;2023-07-29T11:17:19;2.30;;;2.10;;
18726;SDS011;9492;51.888;5.186;2023-07-29T11:19:45;2.20;;;2.00;;
18726;SDS011;9492;51.888;5.186;2023-07-29T11:22:12;2.60;;;2.30;;
18726;SDS011;9492;51.888;5.186;2023-07-29T11:24:41;2.70;;;2.50;;
18726;SDS011;9492;51.888;5.186;2023-07-29T11:27:11;10.33;;;3.00;;
18726;SDS011;9492;51.888;5.186;2023-07-29T11:29:37;5.20;;;2.60;;
18726;SDS011;9492;51.888;5.186;2023-07-29T11:32:03;2.57;;;2.37;;
18726;SDS011;9492;51.888;5.186;2023-07-29T11:34:32;2.47;;;2.20;;
18726;SDS011;9492;51.888;5.186;2023-07-29T11:36:58;3.23;;;2.67;;
18726;SDS011;9492;51.888;5.186;2023-07-29T11:39:24;4.07;;;2.57;;
18726;SDS011;9492;51.888;5.186;2023-07-29T11:41:53;3.23;;;2.37;;
18726;SDS011;9492;51.888;5.186;2023-07-29T11:44:20;2.63;;;2.20;;
18726;SDS011;9492;51.888;5.186;2023-07-29T11:46:46;2.40;;;1.87;;
18726;SDS011;9492;51.888;5.186;2023-07-29T11:49:13;3.23;;;1.90;;
18726;SDS011;9492;51.888;5.186;2023-07-29T11:51:40;2.33;;;1.60;;
18726;SDS011;9492;51.888;5.186;2023-07-29T11:54:07;3.70;;;1.63;;
18726;SDS011;9492;51.888;5.186;2023-07-29T11:56:34;2.10;;;1.50;;
18726;SDS011;9492;51.888;5.186;2023-07-29T11:59:01;2.20;;;1.60;;
18726;SDS011;9492;51.888;5.186;2023-07-29T12:01:28;1.40;;;1.30;;
18726;SDS011;9492;51.888;5.186;2023-07-29T12:03:55;1.57;;;1.47;;
18726;SDS011;9492;51.888;5.186;2023-07-29T12:06:23;1.80;;;1.67;;
18726;SDS011;9492;51.888;5.186;2023-07-29T12:08:49;1.53;;;1.43;;
18726;SDS011;9492;51.888;5.186;2023-07-29T12:11:16;2.40;;;1.40;;
18726;SDS011;9492;51.888;5.186;2023-07-29T12:13:42;2.43;;;1.90;;
18726;SDS011;9492;51.888;5.186;2023-07-29T12:16:08;2.03;;;1.87;;
18726;SDS011;9492;51.888;5.186;2023-07-29T12:18:35;2.10;;;2.00;;
18726;SDS011;9492;51.888;5.186;2023-07-29T12:21:03;2.33;;;2.00;;
18726;SDS011;9492;51.888;5.186;2023-07-29T12:23:29;2.60;;;2.13;;
18726;SDS011;9492;51.888;5.186;2023-07-29T12:25:58;2.00;;;1.80;;
18726;SDS011;9492;51.888;5.186;2023-07-29T12:28:25;2.40;;;2.20;;
18726;SDS011;9492;51.888;5.186;2023-07-29T12:30:55;1.93;;;1.80;;
18726;SDS011;9492;51.888;5.186;2023-07-29T12:33:32;2.57;;;2.20;;
18726;SDS011;9492;51.888;5.186;2023-07-29T12:35:58;2.47;;;2.20;;
18726;SDS011;9492;51.888;5.186;2023-07-29T12:38:28;2.50;;;2.30;;
18726;SDS011;9492;51.888;5.186;2023-07-29T12:40:54;2.50;;;2.30;;
18726;SDS011;9492;51.888;5.186;2023-07-29T12:43:20;4.27;;;2.57;;
18726;SDS011;9492;51.888;5.186;2023-07-29T12:45:49;2.30;;;2.10;;
18726;SDS011;9492;51.888;5.186;2023-07-29T12:48:15;2.60;;;2.40;;
18726;SDS011;9492;51.888;5.186;2023-07-29T12:50:41;2.17;;;1.97;;
18726;SDS011;9492;51.888;5.186;2023-07-29T12:53:08;4.27;;;2.70;;
18726;SDS011;9492;51.888;5.186;2023-07-29T12:55:40;7.13;;;4.00;;
18726;SDS011;9492;51.888;5.186;2023-07-29T12:58:06;3.60;;;3.30;;
18726;SDS011;9492;51.888;5.186;2023-07-29T13:00:35;5.77;;;3.47;;
18726;SDS011;9492;51.888;5.186;2023-07-29T13:03:01;5.80;;;3.13;;
18726;SDS011;9492;51.888;5.186;2023-07-29T13:05:30;3.53;;;2.93;;
18726;SDS011;9492;51.888;5.186;2023-07-29T13:07:56;3.47;;;2.60;;
18726;SDS011;9492;51.888;5.186;2023-07-29T13:10:22;3.13;;;2.77;;
18726;SDS011;9492;51.888;5.186;2023-07-29T13:12:48;2.87;;;2.63;;
18726;SDS011;9492;51.888;5.186;2023-07-29T13:15:14;3.23;;;2.67;;
18726;SDS011;9492;51.888;5.186;2023-07-29T13:17:40;3.50;;;3.20;;
18726;SDS011;9492;51.888;5.186;2023-07-29T13:20:14;3.60;;;2.87;;
18726;SDS011;9492;51.888;5.186;2023-07-29T13:22:40;3.33;;;3.03;;
18726;SDS011;9492;51.888;5.186;2023-07-29T13:25:06;4.10;;;3.13;;
18726;SDS011;9492;51.888;5.186;2023-07-29T13:27:32;4.07;;;3.70;;
18726;SDS011;9492;51.888;5.186;2023-07-29T13:29:58;3.13;;;2.83;;
18726;SDS011;9492;51.888;5.186;2023-07-29T13:32:24;4.10;;;3.00;;
18726;SDS011;9492;51.888;5.186;2023-07-29T13:34:50;3.10;;;2.87;;
18726;SDS011;9492;51.888;5.186;2023-07-29T13:37:16;2.93;;;2.70;;
18726;SDS011;9492;51.888;5.186;2023-07-29T13:39:42;3.60;;;3.30;;
18726;SDS011;9492;51.888;5.186;2023-07-29T13:42:08;4.30;;;3.37;;
18726;SDS011;9492;51.888;5.186;2023-07-29T13:44:35;3.57;;;3.20;;
18726;SDS011;9492;51.888;5.186;2023-07-29T13:47:01;3.23;;;3.03;;
18726;SDS011;9492;51.888;5.186;2023-07-29T13:49:27;5.10;;;3.20;;
18726;SDS011;9492;51.888;5.186;2023-07-29T13:51:53;2.60;;;2.40;;
18726;SDS011;9492;51.888;5.186;2023-07-29T13:54:19;2.53;;;2.33;;
18726;SDS011;9492;51.888;5.186;2023-07-29T13:56:46;2.33;;;2.17;;
18726;SDS011;9492;51.888;5.186;2023-07-29T13:59:12;2.67;;;2.47;;
18726;SDS011;9492;51.888;5.186;2023-07-29T14:01:38;2.87;;;2.27;;
18726;SDS011;9492;51.888;5.186;2023-07-29T14:04:04;1.97;;;1.87;;
18726;SDS011;9492;51.888;5.186;2023-07-29T14:06:30;2.00;;;1.80;;
18726;SDS011;9492;51.888;5.186;2023-07-29T14:08:56;2.30;;;1.90;;
18726;SDS011;9492;51.888;5.186;2023-07-29T14:11:22;2.23;;;1.90;;
18726;SDS011;9492;51.888;5.186;2023-07-29T14:13:48;2.77;;;1.80;;
18726;SDS011;9492;51.888;5.186;2023-07-29T14:16:14;1.90;;;1.80;;
18726;SDS011;9492;51.888;5.186;2023-07-29T14:18:40;2.13;;;1.80;;
18726;SDS011;9492;51.888;5.186;2023-07-29T14:21:06;3.53;;;1.60;;
18726;SDS011;9492;51.888;5.186;2023-07-29T14:23:32;2.37;;;1.57;;
18726;SDS011;9492;51.888;5.186;2023-07-29T14:25:58;2.80;;;1.77;;
18726;SDS011;9492;51.888;5.186;2023-07-29T14:28:24;1.60;;;1.50;;
18726;SDS011;9492;51.888;5.186;2023-07-29T14:30:50;1.40;;;1.30;;
18726;SDS011;9492;51.888;5.186;2023-07-29T14:33:16;1.73;;;1.30;;
18726;SDS011;9492;51.888;5.186;2023-07-29T14:35:43;1.47;;;1.37;;
18726;SDS011;9492;51.888;5.186;2023-07-29T14:38:09;2.33;;;1.47;;
18726;SDS011;9492;51.888;5.186;2023-07-29T14:40:35;1.53;;;1.43;;
18726;SDS011;9492;51.888;5.186;2023-07-29T14:43:01;2.17;;;1.10;;
18726;SDS011;9492;51.888;5.186;2023-07-29T14:45:27;1.30;;;1.20;;
18726;SDS011;9492;51.888;5.186;2023-07-29T14:47:53;1.83;;;1.30;;
18726;SDS011;9492;51.888;5.186;2023-07-29T14:50:19;1.40;;;1.30;;
18726;SDS011;9492;51.888;5.186;2023-07-29T14:52:45;1.43;;;1.13;;
18726;SDS011;9492;51.888;5.186;2023-07-29T14:55:11;1.80;;;1.50;;
18726;SDS011;9492;51.888;5.186;2023-07-29T14:57:37;2.07;;;1.20;;
18726;SDS011;9492;51.888;5.186;2023-07-29T15:00:03;2.10;;;1.07;;
18726;SDS011;9492;51.888;5.186;2023-07-29T15:02:29;1.93;;;1.00;;
18726;SDS011;9492;51.888;5.186;2023-07-29T15:04:55;1.27;;;1.17;;
18726;SDS011;9492;51.888;5.186;2023-07-29T15:07:21;1.73;;;1.00;;
18726;SDS011;9492;51.888;5.186;2023-07-29T15:09:47;1.10;;;1.10;;
18726;SDS011;9492;51.888;5.186;2023-07-29T15:12:13;1.40;;;1.30;;
18726;SDS011;9492;51.888;5.186;2023-07-29T15:14:39;1.73;;;1.43;;
18726;SDS011;9492;51.888;5.186;2023-07-29T15:17:05;1.77;;;1.60;;